Terminal Aerodrome Forecast
Issued by NWS

Home | Current Version | Previous Version | Text Only | Print | Product List | Glossary On
Versions: 1 2 3 4 5 6 7 8 9 10 11 12 13 14 15 16 17 18 19 20 21 22 23 24 25 26 27 28 29 30 31 32 33 34 35 36 37 38 39 40 41 42 43 44 45 46 47 48 49 50
000
FTUS41 KGYX 021127
TAFMHT
TAF
KMHT 021127Z 0212/0312 03006KT 3SM -RA BR SCT008 BKN015 OVC025
      TEMPO 0212/0213 2SM RA BR BKN008 OVC012
     FM021300 02009KT 5SM -SHRA BR BKN015 OVC025
     FM021500 03011KT P6SM -DZ SCT015 BKN025 OVC035
     FM030200 VRB04KT P6SM BKN025 OVC040=

USA.gov is the U.S. government's official web portal to all federal, state and local government web resources and services.